Time;durP1;ratioP1;P1;durP2;ratioP2;P2;SDS_P1;SDS_P2;PMS_P1;PMS_P2;Temp;Humidity;BMP_temperature;BMP_pressure;BME280_temperature;BME280_humidity;BME280_pressure;Samples;Min_cycle;Max_cycle;Signal;HPM_P1;HPM_P2
2024/01/31 00:00:58;;;;;;;2.80;1.63;;;;;;;20.98;41.47;103270.00;4910155;28;125440;-75
2024/01/31 00:03:24;;;;;;;2.33;1.42;;;;;;;20.99;41.73;103270.88;4926760;28;101644;-74
2024/01/31 00:05:49;;;;;;;2.28;1.25;;;;;;;20.99;41.54;103278.84;4927266;28;105122;-75
2024/01/31 00:08:15;;;;;;;2.75;1.02;;;;;;;20.99;41.60;103282.38;4901236;28;112510;-75
2024/01/31 00:10:40;;;;;;;3.45;1.63;;;;;;;20.98;41.83;103270.00;4917790;28;97738;-74
2024/01/31 00:13:05;;;;;;;2.92;0.93;;;;;;;20.99;41.88;103277.06;4909958;28;96860;-75
2024/01/31 00:15:31;;;;;;;1.95;1.02;;;;;;;20.99;41.74;103276.19;4925212;28;97314;-75
2024/01/31 00:17:56;;;;;;;3.22;1.45;;;;;;;20.98;41.66;103280.59;4909274;28;126287;-74
2024/01/31 00:20:22;;;;;;;2.22;1.02;;;;;;;20.98;41.45;103285.91;4926040;28;99420;-75
2024/01/31 00:22:47;;;;;;;2.08;0.90;;;;;;;20.99;41.65;103286.78;4907831;28;97088;-75
2024/01/31 00:25:13;;;;;;;1.70;0.85;;;;;;;20.97;41.76;103281.47;4919362;28;119380;-73
2024/01/31 00:27:38;;;;;;;2.83;0.85;;;;;;;20.97;41.75;103284.13;4923289;28;97588;-75
2024/01/31 00:30:04;;;;;;;2.97;0.93;;;;;;;20.98;41.52;103285.91;4927864;28;98233;-75
2024/01/31 00:32:29;;;;;;;3.30;1.67;;;;;;;20.98;41.75;103295.63;4909760;28;97177;-75
2024/01/31 00:34:55;;;;;;;1.40;1.02;;;;;;;20.97;41.55;103297.38;4909795;28;96961;-75
2024/01/31 00:37:20;;;;;;;2.40;0.80;;;;;;;20.98;41.51;103299.19;4907117;28;100138;-75
2024/01/31 00:39:48;;;;;;;3.33;1.60;;;;;;;20.98;41.53;103303.56;4927403;28;97658;-75
2024/01/31 00:42:14;;;;;;;3.10;1.45;;;;;;;20.97;41.61;103301.81;4923116;28;96991;-75
2024/01/31 00:44:42;;;;;;;1.70;0.93;;;;;;;20.97;41.46;103305.34;4904801;28;99001;-75
2024/01/31 00:47:08;;;;;;;2.55;0.90;;;;;;;20.97;41.65;103310.66;4907955;28;97573;-75
2024/01/31 00:49:34;;;;;;;2.88;1.25;;;;;;;20.97;41.87;103318.63;4907798;28;97767;-75
2024/01/31 00:52:00;;;;;;;3.53;1.58;;;;;;;20.97;41.87;103321.28;4927798;28;96825;-75
2024/01/31 00:54:26;;;;;;;3.22;1.30;;;;;;;20.98;41.65;103316.84;4926713;28;96648;-75
2024/01/31 00:56:52;;;;;;;2.08;1.25;;;;;;;20.98;41.44;103317.75;4923955;28;98414;-75
2024/01/31 00:59:18;;;;;;;2.55;1.55;;;;;;;20.98;41.75;103320.41;4926877;28;96886;-74
2024/01/31 01:01:43;;;;;;;2.28;1.00;;;;;;;20.97;41.62;103315.97;4902084;28;98928;-74
2024/01/31 01:04:09;;;;;;;1.77;0.73;;;;;;;20.97;41.43;103321.28;4927082;28;97167;-75
2024/01/31 01:06:34;;;;;;;3.70;1.58;;;;;;;20.96;41.42;103314.16;4923508;28;97737;-75
2024/01/31 01:08:59;;;;;;;1.55;0.65;;;;;;;20.97;41.29;103317.75;4914991;28;128197;-75
2024/01/31 01:11:25;;;;;;;2.03;0.95;;;;;;;20.96;41.68;103319.47;4908111;28;124552;-75
2024/01/31 01:13:50;;;;;;;1.67;1.10;;;;;;;20.97;41.55;103315.09;4927706;28;96847;-75
2024/01/31 01:16:16;;;;;;;2.30;1.33;;;;;;;20.97;41.56;103317.75;4926557;28;97520;-75
2024/01/31 01:18:41;;;;;;;2.40;1.27;;;;;;;20.97;41.68;103333.66;4908485;28;120239;-74
2024/01/31 01:21:07;;;;;;;1.42;0.80;;;;;;;20.96;41.41;103330.09;4920807;28;122010;-75
2024/01/31 01:23:32;;;;;;;2.58;1.30;;;;;;;20.95;41.62;103336.28;4915809;28;96952;-75
2024/01/31 01:25:57;;;;;;;2.38;0.95;;;;;;;20.95;41.85;103330.97;4925784;28;101824;-74
2024/01/31 01:28:23;;;;;;;1.50;0.60;;;;;;;20.96;41.49;103332.75;4902107;28;129673;-75
2024/01/31 01:30:48;;;;;;;3.03;0.75;;;;;;;20.96;41.48;103334.50;4898736;28;112035;-75
2024/01/31 01:33:13;;;;;;;1.83;0.80;;;;;;;20.96;41.56;103334.50;4926854;28;97049;-75
2024/01/31 01:35:39;;;;;;;2.47;0.82;;;;;;;20.96;41.73;103342.47;4927500;28;97519;-75
2024/01/31 01:38:04;;;;;;;2.17;1.00;;;;;;;20.96;41.59;103334.50;4920909;28;127110;-75
2024/01/31 01:40:29;;;;;;;2.25;0.82;;;;;;;20.96;41.74;103334.50;4926673;28;110001;-75
2024/01/31 01:42:55;;;;;;;2.58;1.38;;;;;;;20.95;41.41;103336.28;4921016;28;97152;-75
2024/01/31 01:45:20;;;;;;;1.75;0.80;;;;;;;20.96;41.75;103340.69;4919885;28;97546;-74
2024/01/31 01:47:49;;;;;;;2.08;0.82;;;;;;;20.96;41.62;103345.13;4929922;28;97123;-75
2024/01/31 01:50:16;;;;;;;2.47;0.70;;;;;;;20.96;41.76;103339.81;4921123;28;96856;-75
2024/01/31 01:52:41;;;;;;;3.15;1.30;;;;;;;20.96;41.49;103343.34;4911580;28;97343;-75
2024/01/31 01:55:07;;;;;;;2.28;1.30;;;;;;;20.96;41.30;103339.81;4924461;28;96769;-75
2024/01/31 01:57:38;;;;;;;1.45;0.73;;;;;;;20.96;41.41;103339.81;4911763;28;97212;-75
2024/01/31 02:00:04;;;;;;;2.28;1.30;;;;;;;20.95;41.74;103338.94;4929562;28;96858;-75
2024/01/31 02:02:31;;;;;;;2.53;1.45;;;;;;;20.95;41.38;103333.63;4928818;28;96812;-75
2024/01/31 02:04:56;;;;;;;2.92;1.10;;;;;;;20.96;41.54;103329.22;4928333;28;97002;-74
2024/01/31 02:07:26;;;;;;;1.75;0.90;;;;;;;20.96;41.59;103331.88;4912450;28;97944;-74
2024/01/31 02:09:53;;;;;;;2.17;0.90;;;;;;;20.95;41.67;103324.81;4922425;28;96981;-74
2024/01/31 02:12:18;;;;;;;2.05;1.20;;;;;;;20.96;41.29;103331.88;4936181;28;97182;-74
2024/01/31 02:14:45;;;;;;;2.55;1.45;;;;;;;20.96;41.30;103339.81;4929434;28;96834;-75
2024/01/31 02:17:10;;;;;;;2.63;0.82;;;;;;;20.96;41.63;103334.50;4912466;28;97130;-75
2024/01/31 02:19:36;;;;;;;2.38;1.40;;;;;;;20.95;41.54;103328.34;4911934;28;98135;-75
2024/01/31 02:22:02;;;;;;;2.28;0.85;;;;;;;20.96;41.67;103331.88;4909346;28;96780;-75
2024/01/31 02:24:28;;;;;;;1.45;1.27;;;;;;;20.95;41.53;103325.69;4901939;28;97856;-75
2024/01/31 02:26:53;;;;;;;1.67;0.57;;;;;;;20.94;41.43;103321.22;4911887;28;97264;-75
2024/01/31 02:29:18;;;;;;;1.90;1.10;;;;;;;20.94;41.63;103326.53;4929508;28;96761;-74
2024/01/31 02:31:44;;;;;;;2.38;1.10;;;;;;;20.95;41.68;103314.19;4920855;28;113822;-75
2024/01/31 02:34:09;;;;;;;2.05;1.30;;;;;;;20.95;41.21;103311.53;4896067;28;97720;-75
2024/01/31 02:36:34;;;;;;;2.10;0.98;;;;;;;20.94;41.41;103315.06;4920371;28;126410;-75
2024/01/31 02:39:00;;;;;;;2.05;0.68;;;;;;;20.95;41.51;103322.16;4925510;28;123324;-75
2024/01/31 02:41:25;;;;;;;2.40;1.17;;;;;;;20.94;41.39;103318.59;4920043;28;122712;-75
2024/01/31 02:43:50;;;;;;;1.80;0.55;;;;;;;20.94;41.58;103320.34;4921729;28;107651;-75
2024/01/31 02:46:16;;;;;;;1.50;0.77;;;;;;;20.95;41.53;103311.53;4928145;28;97194;-75
2024/01/31 02:48:41;;;;;;;1.80;0.80;;;;;;;20.94;41.54;103321.22;4925269;28;97162;-75
2024/01/31 02:51:07;;;;;;;1.48;1.10;;;;;;;20.94;41.34;103325.66;4928020;28;100152;-74
2024/01/31 02:53:32;;;;;;;1.55;0.60;;;;;;;20.93;41.54;103322.13;4928927;28;113921;-75
2024/01/31 02:55:57;;;;;;;1.23;0.85;;;;;;;20.94;41.67;103315.06;4928522;28;127467;-74
2024/01/31 02:58:23;;;;;;;1.80;0.95;;;;;;;20.94;41.20;103312.41;4910179;28;121726;-75
2024/01/31 03:00:48;;;;;;;4.05;0.90;;;;;;;20.94;41.36;103312.41;4907903;28;97046;-75
2024/01/31 03:03:13;;;;;;;1.83;0.80;;;;;;;20.94;41.34;103309.75;4926367;28;97468;-75
2024/01/31 03:05:39;;;;;;;1.75;0.82;;;;;;;20.92;41.67;103315.91;4902696;28;117546;-75
2024/01/31 03:08:04;;;;;;;1.33;0.95;;;;;;;20.94;41.21;103307.09;4924086;28;98220;-75
2024/01/31 03:10:32;;;;;;;2.15;0.88;;;;;;;20.94;41.38;103309.75;4911336;28;97051;-75
2024/01/31 03:12:58;;;;;;;1.40;0.73;;;;;;;20.93;41.20;103316.81;4910874;28;97362;-74
2024/01/31 03:15:23;;;;;;;1.73;1.13;;;;;;;20.94;41.48;103317.69;4927898;28;99405;-75
2024/01/31 03:17:48;;;;;;;1.58;1.02;;;;;;;20.93;41.15;103322.13;4929669;28;96800;-75
2024/01/31 03:20:14;;;;;;;2.25;1.02;;;;;;;20.92;41.60;103315.91;4928566;28;121571;-75
2024/01/31 03:22:39;;;;;;;2.08;1.20;;;;;;;20.93;41.16;103319.47;4927307;28;97990;-75
2024/01/31 03:25:05;;;;;;;1.58;1.05;;;;;;;20.93;41.33;103314.16;4906688;28;97280;-75
2024/01/31 03:27:30;;;;;;;1.20;0.63;;;;;;;20.94;41.56;103304.44;4928117;28;96873;-75
2024/01/31 03:30:01;;;;;;;1.55;0.52;;;;;;;20.94;41.24;103300.00;4923390;28;97344;-75
2024/01/31 03:32:27;;;;;;;1.60;0.60;;;;;;;20.93;41.20;103300.91;4928957;28;97593;-75
2024/01/31 03:34:52;;;;;;;1.90;1.00;;;;;;;20.94;41.09;103304.44;4928906;28;97388;-75
2024/01/31 03:37:18;;;;;;;2.20;0.80;;;;;;;20.92;41.33;103305.28;4905623;28;120882;-75
2024/01/31 03:39:43;;;;;;;2.20;1.10;;;;;;;20.93;41.21;103290.28;4919721;28;104633;-74
2024/01/31 03:42:08;;;;;;;2.05;0.90;;;;;;;20.93;41.45;103292.94;4922116;28;125521;-75
2024/01/31 03:44:34;;;;;;;1.73;1.00;;;;;;;20.92;41.23;103291.16;4911560;28;126828;-75
2024/01/31 03:46:59;;;;;;;1.42;0.80;;;;;;;20.93;41.43;103292.94;4929524;28;96839;-75
2024/01/31 03:49:24;;;;;;;1.98;0.73;;;;;;;20.94;41.36;103296.47;4925586;28;99071;-75
2024/01/31 03:51:50;;;;;;;2.92;1.15;;;;;;;20.92;41.41;103292.03;4923361;28;127023;-74
2024/01/31 03:54:15;;;;;;;2.63;0.63;;;;;;;20.92;41.38;103281.41;4926339;28;97251;-75
2024/01/31 03:56:42;;;;;;;1.40;0.68;;;;;;;20.92;41.45;103284.06;4905586;28;121178;-75
2024/01/31 03:59:08;;;;;;;1.35;0.73;;;;;;;20.92;41.09;103277.88;4927438;28;97319;-75
2024/01/31 04:01:33;;;;;;;1.20;0.52;;;;;;;20.93;41.34;103277.03;4906111;28;126981;-75
2024/01/31 04:03:58;;;;;;;1.42;0.90;;;;;;;20.92;41.47;103284.06;4907031;28;126745;-74
2024/01/31 04:06:24;;;;;;;1.52;1.00;;;;;;;20.92;41.14;103283.19;4915853;28;122061;-75
2024/01/31 04:08:50;;;;;;;1.58;0.60;;;;;;;20.92;41.43;103285.84;4921282;28;96822;-77
2024/01/31 04:11:16;;;;;;;1.70;0.50;;;;;;;20.92;41.32;103277.88;4922537;28;97525;-77
2024/01/31 04:13:44;;;;;;;1.23;0.45;;;;;;;20.92;41.39;103288.50;4905924;28;97609;-76
2024/01/31 04:16:14;;;;;;;1.08;0.43;;;;;;;20.91;41.02;103271.72;4919136;28;97047;-77
2024/01/31 04:18:40;;;;;;;2.58;1.05;;;;;;;20.92;41.43;103275.25;4909262;28;96785;-77
2024/01/31 04:21:05;;;;;;;1.88;1.33;;;;;;;20.91;41.44;103278.78;4927005;28;127146;-77
2024/01/31 04:23:31;;;;;;;1.25;0.68;;;;;;;20.91;41.16;103276.13;4907117;28;100085;-77
2024/01/31 04:25:56;;;;;;;1.30;0.52;;;;;;;20.91;41.23;103270.81;4928475;28;98946;-74
2024/01/31 04:28:23;;;;;;;1.75;1.08;;;;;;;20.91;40.98;103265.53;4927957;28;96959;-75
2024/01/31 04:30:49;;;;;;;1.98;0.95;;;;;;;20.91;41.44;103273.47;4905259;28;98006;-77
2024/01/31 04:33:14;;;;;;;1.13;0.82;;;;;;;20.92;41.25;103270.81;4914626;28;97069;-77
2024/01/31 04:35:39;;;;;;;1.33;0.47;;;;;;;20.90;40.97;103275.22;4903808;28;98416;-75
2024/01/31 04:38:05;;;;;;;1.45;0.50;;;;;;;20.92;41.18;103269.94;4907284;28;96908;-75
2024/01/31 04:40:31;;;;;;;2.00;1.02;;;;;;;20.91;41.01;103262.88;4908970;28;99523;-75
2024/01/31 04:42:56;;;;;;;1.40;1.05;;;;;;;20.92;41.39;103264.63;4925969;28;97544;-75
2024/01/31 04:45:21;;;;;;;1.60;1.08;;;;;;;20.92;41.07;103261.97;4906965;28;113788;-75
2024/01/31 04:47:47;;;;;;;1.70;0.95;;;;;;;20.91;41.14;103266.41;4915932;28;96872;-74
2024/01/31 04:50:12;;;;;;;1.60;0.73;;;;;;;20.93;40.88;103266.41;4907977;28;126908;-75
2024/01/31 04:52:38;;;;;;;1.33;0.70;;;;;;;20.92;41.38;103264.63;4927670;28;97536;-75
2024/01/31 04:55:04;;;;;;;1.25;0.70;;;;;;;20.92;41.22;103269.94;4915474;28;96768;-74
2024/01/31 04:57:33;;;;;;;1.65;0.82;;;;;;;20.91;41.18;103266.41;4926583;28;97039;-74
2024/01/31 04:59:58;;;;;;;0.95;0.65;;;;;;;20.91;41.11;103268.19;4906754;28;99561;-75
2024/01/31 05:02:23;;;;;;;1.20;0.90;;;;;;;20.91;41.10;103263.75;4892229;28;125391;-74
2024/01/31 05:04:49;;;;;;;1.13;0.98;;;;;;;20.90;41.11;103261.97;4918606;28;96756;-75
2024/01/31 05:07:14;;;;;;;1.55;0.52;;;;;;;20.91;41.29;103262.88;4922329;28;96785;-75
2024/01/31 05:09:40;;;;;;;2.63;1.35;;;;;;;20.90;41.26;103261.97;4893244;28;98527;-74
2024/01/31 05:12:05;;;;;;;2.17;1.00;;;;;;;20.90;40.96;103267.25;4907275;28;127288;-75
2024/01/31 05:14:30;;;;;;;2.42;0.70;;;;;;;20.90;41.19;103264.63;4894293;28;96791;-75
2024/01/31 05:16:56;;;;;;;1.33;0.90;;;;;;;20.90;41.31;103267.25;4926654;28;97360;-75
2024/01/31 05:19:22;;;;;;;2.53;1.27;;;;;;;20.91;41.30;103273.47;4909959;28;96906;-75
2024/01/31 05:21:54;;;;;;;2.33;0.73;;;;;;;20.90;41.05;103267.25;4910894;28;97509;-74
2024/01/31 05:24:19;;;;;;;1.67;1.10;;;;;;;20.90;41.03;103271.69;4928160;28;96893;-74
2024/01/31 05:26:46;;;;;;;1.48;0.98;;;;;;;20.91;41.08;103276.13;4904041;28;96956;-75
2024/01/31 05:29:12;;;;;;;1.95;0.60;;;;;;;20.90;41.32;103269.91;4925695;28;97237;-74
2024/01/31 05:31:37;;;;;;;1.55;0.65;;;;;;;20.90;41.03;103272.56;4912515;28;97358;-75
2024/01/31 05:34:03;;;;;;;1.63;0.90;;;;;;;20.90;41.17;103266.38;4896987;28;110140;-75
2024/01/31 05:36:29;;;;;;;2.63;0.90;;;;;;;20.90;40.96;103266.38;4912865;28;97090;-75
2024/01/31 05:38:54;;;;;;;1.85;0.88;;;;;;;20.90;40.99;103272.56;4929251;28;96752;-75
2024/01/31 05:41:20;;;;;;;1.00;0.43;;;;;;;20.90;41.30;103277.88;4921754;28;99918;-75
2024/01/31 05:43:45;;;;;;;1.20;0.88;;;;;;;20.90;41.16;103269.03;4928308;28;96881;-75
2024/01/31 05:46:15;;;;;;;0.98;0.50;;;;;;;20.90;40.99;103261.09;4930212;28;97329;-75
2024/01/31 05:48:42;;;;;;;0.88;0.52;;;;;;;20.89;41.02;103275.19;4912239;28;100728;-75
2024/01/31 05:51:07;;;;;;;1.17;1.02;;;;;;;20.90;41.21;103277.00;4930204;28;97531;-75
2024/01/31 05:53:33;;;;;;;1.40;0.98;;;;;;;20.90;41.13;103282.31;4895725;28;116374;-75
2024/01/31 05:55:58;;;;;;;1.25;0.40;;;;;;;20.89;40.97;103270.81;4926260;28;96907;-74
2024/01/31 05:58:23;;;;;;;1.80;1.00;;;;;;;20.90;41.18;103261.09;4928855;28;126746;-75
2024/01/31 06:00:49;;;;;;;0.80;0.52;;;;;;;20.90;40.90;103266.38;4911016;28;124380;-75
2024/01/31 06:03:15;;;;;;;1.13;0.55;;;;;;;20.89;40.99;103257.56;4930334;28;97117;-75
2024/01/31 06:05:41;;;;;;;1.23;0.80;;;;;;;20.90;41.30;103263.72;4912467;28;97064;-75
2024/01/31 06:08:07;;;;;;;1.17;0.60;;;;;;;20.89;40.79;103260.19;4911939;28;97187;-75
2024/01/31 06:10:33;;;;;;;2.50;0.90;;;;;;;20.89;41.17;103259.28;4896585;28;97810;-75
2024/01/31 06:12:58;;;;;;;1.15;0.40;;;;;;;20.89;41.22;103259.28;4912739;28;97232;-75
2024/01/31 06:15:25;;;;;;;2.08;1.00;;;;;;;20.89;40.89;103265.50;4911953;28;97552;-75
2024/01/31 06:17:51;;;;;;;1.40;0.98;;;;;;;20.90;41.17;103271.69;4912565;28;98167;-75
2024/01/31 06:20:16;;;;;;;1.17;0.57;;;;;;;20.89;40.86;103270.81;4929185;28;97349;-75
2024/01/31 06:22:41;;;;;;;1.00;0.52;;;;;;;20.89;41.02;103269.91;4929293;28;121415;-75
2024/01/31 06:25:07;;;;;;;1.70;0.98;;;;;;;20.90;41.16;103266.38;4912207;28;96960;-75
2024/01/31 06:27:35;;;;;;;1.13;0.52;;;;;;;20.90;40.96;103266.38;4911607;28;100152;-73
2024/01/31 06:30:00;;;;;;;1.20;0.77;;;;;;;20.90;40.71;103255.78;4925532;28;97288;-75
2024/01/31 06:32:31;;;;;;;1.33;0.38;;;;;;;20.89;40.96;103249.59;4923127;28;96927;-75
2024/01/31 06:34:57;;;;;;;0.75;0.47;;;;;;;20.89;40.73;103240.72;4921456;28;98463;-73
2024/01/31 06:37:22;;;;;;;1.83;1.02;;;;;;;20.89;41.00;103241.63;4922640;28;97405;-75
2024/01/31 06:39:48;;;;;;;1.90;0.60;;;;;;;20.89;41.22;103246.03;4923161;28;97068;-75
2024/01/31 06:42:13;;;;;;;1.52;1.10;;;;;;;20.89;40.62;103248.69;4906601;28;96956;-75
2024/01/31 06:44:39;;;;;;;1.60;0.73;;;;;;;20.88;41.05;103246.91;4918156;28;121483;-74
2024/01/31 06:47:05;;;;;;;1.45;0.50;;;;;;;20.87;40.99;103235.44;4900131;28;126503;-75
2024/01/31 06:49:31;;;;;;;1.52;0.80;;;;;;;20.89;40.82;103231.03;4909751;28;97367;-75
2024/01/31 06:51:56;;;;;;;1.15;0.88;;;;;;;20.89;40.93;103227.44;4928989;28;97767;-75
2024/01/31 06:54:22;;;;;;;1.20;0.52;;;;;;;20.88;41.07;103223.03;4927446;28;97110;-75
2024/01/31 06:56:47;;;;;;;1.20;0.57;;;;;;;20.87;41.00;103216.88;4928073;28;97496;-76
2024/01/31 06:59:12;;;;;;;1.17;0.50;;;;;;;20.88;41.23;103217.75;4924071;28;127028;-76
2024/01/31 07:01:38;;;;;;;1.40;0.60;;;;;;;20.89;40.84;103219.50;4891980;28;120551;-75
2024/01/31 07:04:03;;;;;;;1.80;1.20;;;;;;;20.88;40.73;103223.91;4905890;28;98833;-76
2024/01/31 07:06:29;;;;;;;2.00;0.63;;;;;;;20.88;40.97;103223.03;4921749;28;100166;-77
2024/01/31 07:08:54;;;;;;;0.73;0.43;;;;;;;20.87;41.18;103223.91;4924914;28;97135;-77
2024/01/31 07:11:19;;;;;;;1.42;0.90;;;;;;;20.87;40.81;103234.53;4906399;28;115065;-76
2024/01/31 07:13:45;;;;;;;1.25;0.52;;;;;;;20.87;40.67;103242.47;4920921;28;114380;-77
2024/01/31 07:16:10;;;;;;;1.48;0.70;;;;;;;20.87;41.00;103258.38;4905166;28;97740;-77
2024/01/31 07:18:39;;;;;;;2.30;1.23;;;;;;;20.87;40.90;103269.91;4919148;28;97501;-78
2024/01/31 07:21:04;;;;;;;1.70;0.88;;;;;;;20.87;40.73;103288.50;4919798;28;97642;-78
2024/01/31 07:23:30;;;;;;;2.28;0.77;;;;;;;20.87;40.88;103288.50;4894457;28;122410;-78
2024/01/31 07:25:55;;;;;;;1.40;0.43;;;;;;;20.86;40.92;103297.31;4898358;28;96920;-77
2024/01/31 07:28:22;;;;;;;0.73;0.47;;;;;;;20.87;41.04;103307.06;4861184;28;1422311;-77
2024/01/31 07:30:47;;;;;;;1.40;0.98;;;;;;;20.88;40.80;103302.63;4906848;28;97954;-77
2024/01/31 07:33:13;;;;;;;1.98;0.82;;;;;;;20.86;41.04;103309.69;4924260;28;97556;-77
2024/01/31 07:35:38;;;;;;;2.45;1.08;;;;;;;20.87;41.36;103306.13;4907282;28;97382;-77
2024/01/31 07:38:04;;;;;;;1.60;1.20;;;;;;;20.87;40.94;103308.78;4888093;28;126835;-77
2024/01/31 07:40:29;;;;;;;1.15;0.80;;;;;;;20.87;40.90;103314.09;4908661;28;97298;-77
2024/01/31 07:42:54;;;;;;;1.77;0.50;;;;;;;20.86;41.14;103310.56;4897131;28;97863;-77
2024/01/31 07:45:20;;;;;;;1.25;0.77;;;;;;;20.86;41.18;103313.22;4894709;28;98028;-77
2024/01/31 07:47:45;;;;;;;1.45;1.10;;;;;;;20.87;40.72;103330.00;4907873;28;99194;-76
2024/01/31 07:50:11;;;;;;;2.03;0.93;;;;;;;20.86;40.86;103333.56;4906373;28;99041;-77
2024/01/31 07:52:36;;;;;;;1.33;0.82;;;;;;;20.87;40.81;103324.72;4895408;28;97160;-77
2024/01/31 07:55:03;;;;;;;1.20;0.40;;;;;;;20.87;41.10;103330.00;4926757;28;100313;-77
2024/01/31 07:57:28;;;;;;;1.42;1.05;;;;;;;20.87;40.66;103338.88;4908493;28;99583;-77
2024/01/31 07:59:54;;;;;;;2.97;1.00;;;;;;;20.87;41.18;103333.59;4924784;28;120730;-77
2024/01/31 08:02:20;;;;;;;2.42;0.90;;;;;;;20.87;40.90;103337.97;4905099;28;96898;-77
2024/01/31 08:04:45;;;;;;;2.63;0.73;;;;;;;20.87;40.97;103330.94;4902962;28;98350;-77
2024/01/31 08:07:12;;;;;;;1.00;0.60;;;;;;;20.86;40.90;103334.44;4906777;28;97223;-76
2024/01/31 08:09:40;;;;;;;0.70;0.32;;;;;;;20.87;40.61;103324.72;4908620;28;97655;-77
2024/01/31 08:12:07;;;;;;;1.08;0.65;;;;;;;20.87;41.13;103332.66;4905516;28;97328;-77
2024/01/31 08:14:33;;;;;;;1.50;0.40;;;;;;;20.86;40.83;103334.44;4924935;28;98211;-75
2024/01/31 08:16:58;;;;;;;1.00;0.55;;;;;;;20.87;40.64;103337.97;4936627;28;100374;-75
2024/01/31 08:19:23;;;;;;;2.30;0.93;;;;;;;20.86;40.83;103329.13;4920416;28;113502;-74
2024/01/31 08:21:49;;;;;;;0.73;0.32;;;;;;;20.86;40.89;103322.94;4916691;28;96579;-75
2024/01/31 08:24:15;;;;;;;1.23;0.47;;;;;;;20.87;40.79;103308.78;4908806;28;114519;-75
2024/01/31 08:26:40;;;;;;;1.42;0.70;;;;;;;20.87;40.94;103300.84;4927430;28;97988;-75
2024/01/31 08:29:06;;;;;;;2.45;0.90;;;;;;;20.86;41.19;103310.56;4914490;28;120953;-75
2024/01/31 08:31:31;;;;;;;1.00;0.43;;;;;;;20.87;41.04;103311.44;4907581;28;96995;-75
2024/01/31 08:33:56;;;;;;;2.50;0.95;;;;;;;20.87;40.64;103319.41;4910097;28;103829;-75
2024/01/31 08:36:22;;;;;;;1.00;0.70;;;;;;;20.87;40.91;103319.41;4910398;28;96885;-75
2024/01/31 08:38:47;;;;;;;1.40;0.75;;;;;;;20.87;41.18;103308.78;4910534;28;97540;-75
2024/01/31 08:41:13;;;;;;;1.75;0.70;;;;;;;20.87;40.81;103306.13;4921458;28;121724;-74
2024/01/31 08:43:38;;;;;;;1.40;1.00;;;;;;;20.87;41.06;103304.41;4902527;28;98347;-75
2024/01/31 08:46:03;;;;;;;1.30;0.50;;;;;;;20.87;41.06;103300.84;4914670;28;96720;-75
2024/01/31 08:48:29;;;;;;;1.70;1.02;;;;;;;20.87;40.73;103298.19;4922643;28;96943;-74
2024/01/31 08:50:57;;;;;;;1.20;0.93;;;;;;;20.86;40.95;103289.34;4905894;28;121603;-75
2024/01/31 08:53:22;;;;;;;0.80;0.43;;;;;;;20.86;40.97;103297.31;4923488;28;100549;-75
2024/01/31 08:55:48;;;;;;;2.40;1.13;;;;;;;20.87;40.61;103291.13;4926801;28;98193;-76
2024/01/31 08:58:13;;;;;;;1.58;0.50;;;;;;;20.87;40.75;103285.84;4931787;28;96768;-75
2024/01/31 09:00:39;;;;;;;2.70;1.08;;;;;;;20.86;40.63;103294.66;4935082;28;96963;-75
2024/01/31 09:03:04;;;;;;;0.93;0.50;;;;;;;20.87;41.06;103287.56;4925274;28;99186;-74
2024/01/31 09:05:29;;;;;;;1.48;0.60;;;;;;;20.85;40.68;103282.25;4928234;28;97127;-75
2024/01/31 09:07:55;;;;;;;1.27;0.50;;;;;;;20.86;41.19;103284.03;4918226;28;123044;-75
2024/01/31 09:10:21;;;;;;;0.63;0.47;;;;;;;20.87;40.77;103271.66;4921325;28;122782;-75
2024/01/31 09:12:46;;;;;;;1.75;0.90;;;;;;;20.86;40.72;103267.25;4925378;28;98229;-75
2024/01/31 09:15:13;;;;;;;1.20;0.63;;;;;;;20.87;40.68;103263.69;4923230;28;97143;-75
2024/01/31 09:17:38;;;;;;;1.73;1.10;;;;;;;20.87;40.87;103263.69;4926814;28;96839;-75
2024/01/31 09:20:05;;;;;;;1.35;0.35;;;;;;;20.87;40.93;103263.69;4924332;28;97272;-74
2024/01/31 09:22:30;;;;;;;2.15;0.63;;;;;;;20.87;40.67;103261.03;4926488;28;98626;-77
2024/01/31 09:24:55;;;;;;;1.58;1.02;;;;;;;20.87;40.78;103261.97;4923931;28;127440;-77
2024/01/31 09:27:21;;;;;;;1.23;0.80;;;;;;;20.87;40.66;103256.66;4926934;28;97345;-77
2024/01/31 09:29:47;;;;;;;1.65;0.90;;;;;;;20.87;40.72;103243.38;4925975;28;96894;-77
2024/01/31 09:32:14;;;;;;;1.77;0.63;;;;;;;20.87;40.78;103237.16;4926149;28;98126;-77
2024/01/31 09:34:40;;;;;;;2.08;1.15;;;;;;;20.87;40.68;103240.75;4904910;28;99878;-76
2024/01/31 09:37:06;;;;;;;1.50;0.52;;;;;;;20.87;40.84;103231.88;4925845;28;96912;-77
2024/01/31 09:39:31;;;;;;;2.08;0.60;;;;;;;20.87;40.77;103230.13;4913335;28;97050;-75
2024/01/31 09:41:57;;;;;;;2.65;0.60;;;;;;;20.88;40.64;103223.03;4907663;28;97061;-75
2024/01/31 09:44:23;;;;;;;1.27;0.60;;;;;;;20.88;40.67;103228.34;4908101;28;97091;-75
2024/01/31 09:46:51;;;;;;;2.47;0.98;;;;;;;20.87;40.46;103223.91;4925770;28;96791;-75
2024/01/31 09:49:16;;;;;;;1.92;0.85;;;;;;;20.87;40.70;103231.88;4927286;28;97038;-76
2024/01/31 09:51:42;;;;;;;2.53;1.00;;;;;;;20.89;40.73;103235.41;4923878;28;120850;-75
2024/01/31 09:54:08;;;;;;;0.90;0.63;;;;;;;20.88;40.92;103238.97;4925116;28;97735;-75
2024/01/31 09:56:34;;;;;;;1.00;0.43;;;;;;;20.87;40.57;103223.91;4909379;28;97274;-75
2024/01/31 09:58:59;;;;;;;1.02;0.52;;;;;;;20.88;40.48;103217.75;4929367;28;97324;-75
2024/01/31 10:01:26;;;;;;;2.45;0.82;;;;;;;20.89;40.90;103222.16;4915222;28;126954;-75
2024/01/31 10:03:52;;;;;;;2.15;1.20;;;;;;;20.89;40.54;103208.88;4932388;28;97337;-75
2024/01/31 10:06:19;;;;;;;1.85;0.75;;;;;;;20.89;40.52;103208.88;4899024;28;96747;-75
2024/01/31 10:08:46;;;;;;;1.50;0.75;;;;;;;20.88;40.66;103213.31;4928741;28;96874;-75
2024/01/31 10:11:12;;;;;;;1.48;0.55;;;;;;;20.88;40.45;103213.31;4912896;28;96782;-75
2024/01/31 10:13:38;;;;;;;1.92;1.15;;;;;;;20.89;40.66;103224.81;4928978;28;96976;-75
2024/01/31 10:16:04;;;;;;;1.13;0.52;;;;;;;20.88;40.51;103218.63;4896554;28;96816;-75
2024/01/31 10:18:29;;;;;;;1.65;0.90;;;;;;;20.89;40.56;103228.38;4929476;28;96823;-75
2024/01/31 10:20:56;;;;;;;1.40;0.93;;;;;;;20.89;40.85;103224.81;4929086;28;96828;-75
2024/01/31 10:23:22;;;;;;;1.88;1.13;;;;;;;20.89;40.89;103227.44;4911673;28;97623;-75
2024/01/31 10:25:47;;;;;;;2.42;0.98;;;;;;;20.89;40.56;103230.09;4929926;28;96809;-75
2024/01/31 10:28:18;;;;;;;1.75;0.63;;;;;;;20.89;40.50;103232.75;4909267;28;97628;-75
2024/01/31 10:30:44;;;;;;;1.70;0.77;;;;;;;20.89;40.48;103233.69;4922662;28;97470;-75
2024/01/31 10:33:11;;;;;;;1.90;1.20;;;;;;;20.89;40.66;103230.09;4929147;28;97636;-75
2024/01/31 10:35:37;;;;;;;1.63;1.10;;;;;;;20.88;40.49;103234.53;4928308;28;97379;-75
2024/01/31 10:38:05;;;;;;;2.35;1.20;;;;;;;20.89;40.53;103238.97;4930084;28;97421;-75
2024/01/31 10:40:33;;;;;;;1.63;0.85;;;;;;;20.89;40.50;103238.97;4907705;28;96897;-75
2024/01/31 10:42:58;;;;;;;1.48;0.82;;;;;;;20.90;40.72;103245.16;4926264;28;100363;-75
2024/01/31 10:45:25;;;;;;;1.75;1.00;;;;;;;20.88;40.60;103237.19;4924787;28;122577;-75
2024/01/31 10:47:50;;;;;;;1.20;0.45;;;;;;;20.89;40.71;103238.06;4927953;28;96816;-75
2024/01/31 10:50:16;;;;;;;2.03;1.08;;;;;;;20.89;40.63;103240.72;4893630;28;126427;-77
2024/01/31 10:52:42;;;;;;;2.72;1.20;;;;;;;20.88;40.76;103242.50;4926106;28;97616;-77
2024/01/31 10:55:09;;;;;;;1.80;0.55;;;;;;;20.89;40.49;103235.41;4925355;28;98134;-77
2024/01/31 10:57:37;;;;;;;2.80;1.00;;;;;;;20.88;40.45;103239.84;4927137;28;97088;-76
2024/01/31 11:00:08;;;;;;;2.38;1.00;;;;;;;20.89;40.66;103228.38;4926670;28;97076;-77
2024/01/31 11:02:34;;;;;;;1.90;0.93;;;;;;;20.88;40.64;103223.91;4927243;28;99524;-77
2024/01/31 11:05:00;;;;;;;2.47;1.00;;;;;;;20.89;40.59;103224.81;4923848;28;96700;-77
2024/01/31 11:07:26;;;;;;;2.42;0.93;;;;;;;20.89;40.39;103216.84;4921574;28;96899;-77
2024/01/31 11:09:51;;;;;;;1.75;0.70;;;;;;;20.89;40.34;103211.53;4906995;28;98089;-77
2024/01/31 11:12:17;;;;;;;2.20;0.93;;;;;;;20.89;40.84;103211.53;4908643;28;98915;-77
2024/01/31 11:14:44;;;;;;;1.92;1.15;;;;;;;20.89;40.54;103206.22;4910914;28;98493;-77